Time;durP1;ratioP1;P1;durP2;ratioP2;P2;SDS_P1;SDS_P2;PMS_P1;PMS_P2;Temp;Humidity;BMP_temperature;BMP_pressure;BME280_temperature;BME280_humidity;BME280_pressure;Samples;Min_cycle;Max_cycle;Signal;HPM_P1;HPM_P2
2023/04/22 00:02:24;;;;;;;2.10;1.80;;;14.60;72.50;;;;;;926483;150;27248;-76
2023/04/22 00:04:51;;;;;;;1.80;1.70;;;14.60;72.50;;;;;;926410;150;27443;-76
2023/04/22 00:07:17;;;;;;;1.60;1.50;;;14.60;72.70;;;;;;925954;150;27315;-76
2023/04/22 00:09:44;;;;;;;2.10;2.00;;;14.60;72.80;;;;;;925869;150;27294;-76
2023/04/22 00:12:13;;;;;;;1.92;1.82;;;14.60;72.90;;;;;;925778;150;27256;-76
2023/04/22 00:14:39;;;;;;;2.10;2.00;;;14.60;73.00;;;;;;927177;150;27378;-76
2023/04/22 00:17:06;;;;;;;1.93;1.83;;;14.60;73.10;;;;;;926989;150;27398;-76
2023/04/22 00:19:33;;;;;;;2.00;1.90;;;14.60;73.20;;;;;;925791;150;27458;-76
2023/04/22 00:21:59;;;;;;;2.27;2.07;;;14.60;73.30;;;;;;926851;150;27419;-76
2023/04/22 00:24:26;;;;;;;1.72;1.62;;;14.60;73.40;;;;;;927488;150;27412;-76
2023/04/22 00:26:52;;;;;;;2.42;2.22;;;14.60;73.50;;;;;;926650;150;27372;-76
2023/04/22 00:29:19;;;;;;;2.27;2.08;;;14.50;73.60;;;;;;926834;150;27322;-76
2023/04/22 00:31:46;;;;;;;2.60;2.20;;;14.50;73.30;;;;;;910832;153;27312;-76
2023/04/22 00:34:12;;;;;;;2.77;2.40;;;14.50;73.80;;;;;;908697;155;27822;-76
2023/04/22 00:36:39;;;;;;;2.17;2.08;;;14.50;73.90;;;;;;908821;155;27416;-76
2023/04/22 00:39:05;;;;;;;2.30;2.10;;;14.50;74.00;;;;;;908773;155;27418;-76
2023/04/22 00:41:32;;;;;;;2.42;1.90;;;14.50;74.10;;;;;;910071;155;27479;-76
2023/04/22 00:43:58;;;;;;;2.37;2.17;;;14.50;74.20;;;;;;908438;155;27319;-76
2023/04/22 00:46:25;;;;;;;2.10;2.00;;;14.40;74.20;;;;;;933844;149;27297;-76
2023/04/22 00:48:52;;;;;;;2.00;1.90;;;14.40;74.20;;;;;;926364;150;27458;-76
2023/04/22 00:51:18;;;;;;;2.17;1.92;;;14.40;74.30;;;;;;926040;150;27455;-76
2023/04/22 00:53:45;;;;;;;2.33;1.90;;;14.40;74.40;;;;;;926678;150;27319;-76
2023/04/22 00:56:12;;;;;;;2.00;1.90;;;14.40;74.50;;;;;;910465;153;27712;-76
2023/04/22 00:58:38;;;;;;;2.57;2.30;;;14.40;74.50;;;;;;908502;155;27417;-76
2023/04/22 01:01:05;;;;;;;2.05;1.95;;;14.40;74.60;;;;;;907466;155;27425;-76
2023/04/22 01:03:31;;;;;;;2.10;1.90;;;14.40;74.60;;;;;;909050;155;27445;-76
2023/04/22 01:05:58;;;;;;;2.00;1.90;;;14.40;74.60;;;;;;896285;155;27463;-76
2023/04/22 01:08:24;;;;;;;3.43;2.30;;;14.40;74.60;;;;;;895670;155;27359;-76
2023/04/22 01:10:51;;;;;;;2.50;2.30;;;14.40;74.60;;;;;;906082;155;27569;-76
2023/04/22 01:13:17;;;;;;;2.50;2.30;;;14.40;74.70;;;;;;936224;148;27271;-76
2023/04/22 01:15:44;;;;;;;2.40;2.20;;;14.40;74.70;;;;;;909992;153;27467;-76
2023/04/22 01:18:11;;;;;;;2.50;2.30;;;14.40;74.70;;;;;;935188;149;27381;-76
2023/04/22 01:20:37;;;;;;;2.20;2.00;;;14.40;74.70;;;;;;943985;149;27495;-76
2023/04/22 01:23:04;;;;;;;2.30;2.10;;;14.30;74.70;;;;;;944499;149;27365;-76
2023/04/22 01:25:30;;;;;;;2.00;1.90;;;14.30;74.70;;;;;;944006;149;27426;-76
2023/04/22 01:27:57;;;;;;;2.30;2.10;;;14.30;74.90;;;;;;943494;149;27357;-76
2023/04/22 01:30:24;;;;;;;2.30;2.13;;;14.30;74.80;;;;;;943511;149;27399;-76
2023/04/22 01:32:50;;;;;;;2.60;2.20;;;14.30;75.00;;;;;;944523;148;27355;-76
2023/04/22 01:35:17;;;;;;;2.15;2.05;;;14.30;75.10;;;;;;926950;150;27384;-76
2023/04/22 01:37:43;;;;;;;2.43;2.23;;;14.20;75.20;;;;;;942976;147;27262;-76
2023/04/22 01:40:10;;;;;;;2.50;2.02;;;14.20;75.30;;;;;;936717;150;27311;-76
2023/04/22 01:42:37;;;;;;;2.03;1.93;;;14.20;75.30;;;;;;943216;148;27303;-76
2023/04/22 01:45:03;;;;;;;2.20;2.00;;;14.20;75.30;;;;;;942164;148;27364;-76
2023/04/22 01:47:30;;;;;;;3.37;2.30;;;14.20;75.30;;;;;;942593;149;27442;-76
2023/04/22 01:49:56;;;;;;;2.30;2.10;;;14.10;75.40;;;;;;938006;150;27283;-76
2023/04/22 01:52:23;;;;;;;2.03;1.93;;;14.10;75.60;;;;;;938616;150;27382;-76
2023/04/22 01:54:49;;;;;;;4.00;2.00;;;14.10;75.90;;;;;;937603;150;27411;-76
2023/04/22 01:57:16;;;;;;;1.93;1.77;;;14.10;76.10;;;;;;937823;150;27489;-76
2023/04/22 01:59:43;;;;;;;2.13;1.90;;;14.10;76.30;;;;;;937710;150;27358;-76
2023/04/22 02:02:09;;;;;;;2.67;2.47;;;14.10;76.30;;;;;;943094;148;27317;-76
2023/04/22 02:04:36;;;;;;;2.37;2.17;;;14.00;76.40;;;;;;932398;150;27429;-76
2023/04/22 02:07:02;;;;;;;2.42;2.22;;;14.00;76.60;;;;;;930946;150;27472;-76
2023/04/22 02:09:29;;;;;;;1.97;1.87;;;14.00;76.80;;;;;;922961;152;27517;-76
2023/04/22 02:11:56;;;;;;;2.33;2.13;;;14.00;76.90;;;;;;942484;148;27309;-76
2023/04/22 02:14:22;;;;;;;2.42;2.20;;;14.00;76.90;;;;;;926601;150;27478;-76
2023/04/22 02:16:49;;;;;;;2.40;2.20;;;14.00;76.90;;;;;;937986;150;27299;-76
2023/04/22 02:19:15;;;;;;;2.67;2.10;;;14.00;77.00;;;;;;941205;148;27494;-76
2023/04/22 02:21:42;;;;;;;4.23;2.30;;;14.00;77.10;;;;;;928336;153;27475;-76
2023/04/22 02:24:09;;;;;;;2.10;2.00;;;14.00;77.20;;;;;;939643;149;27263;-76
2023/04/22 02:26:35;;;;;;;3.23;2.10;;;14.00;77.40;;;;;;940717;152;27390;-76
2023/04/22 02:29:02;;;;;;;2.27;2.07;;;14.00;77.30;;;;;;941702;149;27365;-76
2023/04/22 02:31:28;;;;;;;2.43;2.23;;;14.00;77.40;;;;;;937970;149;28110;-76
2023/04/22 02:33:55;;;;;;;2.33;2.20;;;14.00;77.40;;;;;;925871;154;27311;-76
2023/04/22 02:36:21;;;;;;;2.50;2.30;;;13.90;77.40;;;;;;943951;152;27426;-76
2023/04/22 02:38:48;;;;;;;2.50;2.30;;;13.90;77.40;;;;;;942182;151;27363;-74
2023/04/22 02:41:15;;;;;;;2.20;2.00;;;13.90;77.50;;;;;;940953;151;27457;-74
2023/04/22 02:43:44;;;;;;;3.17;2.30;;;13.80;77.70;;;;;;944501;151;27450;-74
2023/04/22 02:46:11;;;;;;;2.30;2.10;;;13.80;77.70;;;;;;941908;149;27343;-75
2023/04/22 02:48:34;;;;;;;2.80;2.27;;;13.80;77.80;;;;;;927224;152;27340;-75
2023/04/22 02:51:01;;;;;;;3.20;2.20;;;13.70;77.80;;;;;;929011;152;27489;-75
2023/04/22 02:53:28;;;;;;;3.60;2.70;;;13.70;78.20;;;;;;940917;152;27334;-75
2023/04/22 02:55:55;;;;;;;2.50;2.30;;;13.70;78.50;;;;;;940351;152;27303;-75
2023/04/22 02:58:21;;;;;;;2.83;2.40;;;13.70;78.70;;;;;;926567;151;27351;-75
2023/04/22 03:00:48;;;;;;;2.57;2.37;;;13.70;78.80;;;;;;928040;153;27399;-75
2023/04/22 03:03:14;;;;;;;2.67;2.47;;;13.70;79.00;;;;;;939466;150;27447;-75
2023/04/22 03:05:41;;;;;;;2.93;2.63;;;13.70;79.20;;;;;;927941;151;27747;-75
2023/04/22 03:08:07;;;;;;;2.40;2.20;;;13.70;79.20;;;;;;940522;149;27329;-75
2023/04/22 03:10:34;;;;;;;2.63;2.40;;;13.70;79.40;;;;;;941379;149;27314;-75
2023/04/22 03:13:00;;;;;;;2.47;2.27;;;13.70;79.60;;;;;;942748;151;27415;-75
2023/04/22 03:15:27;;;;;;;2.83;2.30;;;13.70;79.70;;;;;;926723;151;27379;-75
2023/04/22 03:17:53;;;;;;;3.03;2.27;;;13.70;79.90;;;;;;929717;153;27403;-75
2023/04/22 03:20:20;;;;;;;2.93;2.33;;;13.70;80.00;;;;;;943600;148;27400;-75
2023/04/22 03:22:47;;;;;;;2.40;2.20;;;13.70;80.00;;;;;;940531;149;27392;-75
2023/04/22 03:25:13;;;;;;;2.70;2.50;;;13.70;80.00;;;;;;940047;149;27384;-75
2023/04/22 03:27:40;;;;;;;2.43;2.17;;;13.70;80.00;;;;;;940326;149;27765;-75
2023/04/22 03:30:06;;;;;;;2.80;2.60;;;13.70;80.10;;;;;;942505;148;27402;-75
2023/04/22 03:32:33;;;;;;;2.70;2.50;;;13.70;80.00;;;;;;944162;148;27298;-75
2023/04/22 03:35:00;;;;;;;2.57;2.37;;;13.70;79.90;;;;;;930462;149;27426;-75
2023/04/22 03:37:26;;;;;;;2.43;2.23;;;13.70;79.90;;;;;;942230;149;27361;-75
2023/04/22 03:39:53;;;;;;;2.73;2.40;;;13.70;79.70;;;;;;939920;149;27335;-75
2023/04/22 03:42:19;;;;;;;2.17;2.07;;;13.70;79.70;;;;;;941364;149;27338;-75
2023/04/22 03:44:46;;;;;;;2.20;2.10;;;13.70;79.70;;;;;;942890;148;27386;-75
2023/04/22 03:47:13;;;;;;;4.07;2.17;;;13.70;79.70;;;;;;937686;150;27369;-75
2023/04/22 03:49:39;;;;;;;2.60;2.40;;;13.70;79.70;;;;;;937824;150;27475;-75
2023/04/22 03:52:06;;;;;;;2.10;1.90;;;13.70;79.70;;;;;;943238;148;27384;-75
2023/04/22 03:54:32;;;;;;;2.07;1.97;;;13.70;79.60;;;;;;943007;148;27395;-75
2023/04/22 03:56:59;;;;;;;2.53;2.00;;;13.70;79.60;;;;;;940570;149;27477;-75
2023/04/22 03:59:25;;;;;;;1.80;1.70;;;13.70;79.50;;;;;;941972;149;27373;-75
2023/04/22 04:01:52;;;;;;;1.80;1.70;;;13.70;79.40;;;;;;942583;149;27314;-75
2023/04/22 04:04:19;;;;;;;2.37;2.03;;;13.70;79.40;;;;;;943758;148;27329;-75
2023/04/22 04:06:45;;;;;;;1.90;1.73;;;13.70;79.40;;;;;;944002;148;27293;-75
2023/04/22 04:09:12;;;;;;;1.97;1.77;;;13.70;79.40;;;;;;942637;148;27364;-75
2023/04/22 04:11:38;;;;;;;1.80;1.70;;;13.70;80.20;;;;;;939194;150;27381;-75
2023/04/22 04:14:05;;;;;;;1.93;1.83;;;13.70;79.50;;;;;;943200;148;27282;-75
2023/04/22 04:16:32;;;;;;;1.90;1.80;;;13.70;80.20;;;;;;927741;150;27307;-75
2023/04/22 04:18:58;;;;;;;1.93;1.83;;;13.70;79.60;;;;;;948050;147;27290;-75
2023/04/22 04:21:25;;;;;;;1.87;1.73;;;13.70;79.60;;;;;;929314;151;27383;-75
2023/04/22 04:23:51;;;;;;;1.70;1.60;;;13.60;79.50;;;;;;918705;151;27347;-75
2023/04/22 04:26:19;;;;;;;2.13;1.93;;;13.60;79.70;;;;;;928879;150;27263;-75
2023/04/22 04:28:45;;;;;;;1.70;1.60;;;13.60;79.70;;;;;;927302;150;27481;-76
2023/04/22 04:31:11;;;;;;;2.20;2.00;;;13.60;79.90;;;;;;928363;150;27427;-77
2023/04/22 04:33:38;;;;;;;1.90;1.77;;;13.60;79.90;;;;;;928581;150;27256;-77
2023/04/22 04:36:04;;;;;;;2.07;1.97;;;13.60;80.00;;;;;;929402;150;27612;-77
2023/04/22 04:38:31;;;;;;;2.30;2.10;;;13.60;79.90;;;;;;927697;150;27330;-77
2023/04/22 04:40:57;;;;;;;2.00;1.90;;;13.60;80.00;;;;;;928054;150;27369;-77
2023/04/22 04:43:25;;;;;;;2.10;1.90;;;13.60;80.00;;;;;;929578;150;27402;-77
2023/04/22 04:45:51;;;;;;;2.27;2.07;;;13.60;80.00;;;;;;928204;150;27384;-77
2023/04/22 04:48:18;;;;;;;2.93;2.00;;;13.70;80.00;;;;;;928595;150;27360;-77
2023/04/22 04:50:44;;;;;;;2.20;2.10;;;13.70;80.10;;;;;;928439;150;27404;-77
2023/04/22 04:53:10;;;;;;;1.83;1.73;;;13.70;80.10;;;;;;927553;150;27349;-77
2023/04/22 04:55:37;;;;;;;1.83;1.73;;;13.70;80.20;;;;;;920858;151;27382;-77
2023/04/22 04:58:04;;;;;;;1.80;1.70;;;13.70;80.20;;;;;;935248;148;27673;-77
2023/04/22 05:00:30;;;;;;;1.80;1.67;;;13.70;80.20;;;;;;932943;149;27302;-77
2023/04/22 05:02:57;;;;;;;2.40;2.17;;;13.80;80.30;;;;;;932213;149;27282;-77
2023/04/22 05:05:23;;;;;;;1.82;1.72;;;13.80;80.30;;;;;;929639;148;27350;-77
2023/04/22 05:07:50;;;;;;;2.30;2.10;;;13.80;80.40;;;;;;925424;150;27335;-77
2023/04/22 05:10:17;;;;;;;1.80;1.70;;;13.80;80.50;;;;;;925170;150;27419;-77
2023/04/22 05:12:45;;;;;;;2.35;2.10;;;13.80;80.50;;;;;;928345;150;27315;-77
2023/04/22 05:15:10;;;;;;;2.43;1.93;;;13.90;80.50;;;;;;926669;150;27490;-77
2023/04/22 05:17:36;;;;;;;2.23;2.03;;;13.90;80.70;;;;;;927667;150;27350;-77
2023/04/22 05:20:03;;;;;;;2.10;1.90;;;13.90;80.50;;;;;;926185;150;27311;-77
2023/04/22 05:22:29;;;;;;;3.07;2.03;;;13.90;80.70;;;;;;934760;149;27392;-77
2023/04/22 05:24:56;;;;;;;2.47;2.10;;;14.00;80.80;;;;;;936446;150;27427;-77
2023/04/22 05:27:23;;;;;;;2.27;1.80;;;14.00;80.70;;;;;;934118;149;27439;-77
2023/04/22 05:29:49;;;;;;;2.27;2.07;;;14.10;80.70;;;;;;933081;149;27450;-77
2023/04/22 05:32:16;;;;;;;1.93;1.83;;;14.20;80.60;;;;;;937890;149;27342;-77
2023/04/22 05:34:42;;;;;;;2.10;2.00;;;14.20;80.50;;;;;;943307;148;27328;-77
2023/04/22 05:37:09;;;;;;;1.83;1.73;;;14.20;80.50;;;;;;930492;149;27445;-77
2023/04/22 05:39:36;;;;;;;2.77;2.03;;;14.30;80.20;;;;;;931082;149;27380;-77
2023/04/22 05:42:02;;;;;;;2.20;2.10;;;14.40;80.20;;;;;;938715;148;27318;-77
2023/04/22 05:44:29;;;;;;;2.63;1.93;;;14.40;80.00;;;;;;933766;148;27414;-77
2023/04/22 05:46:55;;;;;;;2.00;1.82;;;14.50;80.00;;;;;;937932;149;27309;-75
2023/04/22 05:49:22;;;;;;;3.33;1.90;;;14.60;80.00;;;;;;943913;149;28484;-75
2023/04/22 05:51:49;;;;;;;2.30;2.10;;;14.60;79.90;;;;;;943287;149;27867;-75
2023/04/22 05:54:15;;;;;;;1.80;1.70;;;14.70;79.90;;;;;;932590;149;27342;-75
2023/04/22 05:56:42;;;;;;;1.90;1.80;;;14.80;80.30;;;;;;939056;150;27336;-75
2023/04/22 05:59:08;;;;;;;1.80;1.70;;;14.90;80.10;;;;;;938501;150;28171;-75
2023/04/22 06:01:35;;;;;;;2.92;2.08;;;15.00;80.30;;;;;;938711;150;27382;-75
2023/04/22 06:04:03;;;;;;;1.90;1.80;;;15.10;80.20;;;;;;937259;150;27387;-75
2023/04/22 06:06:28;;;;;;;1.85;1.75;;;15.30;80.40;;;;;;933692;149;27310;-75
2023/04/22 06:08:55;;;;;;;3.42;2.60;;;15.40;81.20;;;;;;938187;150;27448;-75
2023/04/22 06:11:21;;;;;;;2.12;2.00;;;15.70;82.30;;;;;;924020;150;27380;-75
2023/04/22 06:13:48;;;;;;;2.00;1.90;;;16.00;82.90;;;;;;908417;155;27360;-75
2023/04/22 06:16:14;;;;;;;3.50;2.00;;;16.40;82.80;;;;;;931277;149;27334;-75
2023/04/22 06:18:42;;;;;;;1.75;1.65;;;16.90;82.20;;;;;;938946;150;27685;-75
2023/04/22 06:21:08;;;;;;;1.90;1.80;;;17.30;81.30;;;;;;938235;148;27362;-75
2023/04/22 06:23:34;;;;;;;2.25;2.00;;;17.70;80.20;;;;;;926585;150;27396;-74
2023/04/22 06:26:01;;;;;;;2.15;2.00;;;18.10;78.80;;;;;;933534;149;27460;-74
2023/04/22 06:28:27;;;;;;;2.30;2.08;;;18.30;77.10;;;;;;943626;148;27405;-74
2023/04/22 06:30:54;;;;;;;2.10;1.90;;;18.60;75.70;;;;;;941433;148;27326;-74
2023/04/22 06:33:21;;;;;;;2.30;2.15;;;18.90;74.60;;;;;;936925;148;27295;-74
2023/04/22 06:35:47;;;;;;;2.30;2.10;;;19.00;73.50;;;;;;937341;148;27481;-74
2023/04/22 06:38:14;;;;;;;2.10;1.90;;;19.20;72.80;;;;;;937874;150;27352;-74
2023/04/22 06:40:40;;;;;;;2.10;1.90;;;19.30;72.00;;;;;;935599;149;27321;-74
2023/04/22 06:43:07;;;;;;;2.27;2.10;;;19.30;71.40;;;;;;937376;148;27267;-74
2023/04/22 06:45:33;;;;;;;2.85;2.10;;;19.40;71.00;;;;;;924104;150;27371;-74
2023/04/22 06:48:00;;;;;;;2.52;2.33;;;19.50;70.70;;;;;;932830;149;27369;-77
2023/04/22 06:50:27;;;;;;;2.30;1.90;;;19.50;70.20;;;;;;940911;150;27391;-78
2023/04/22 06:52:53;;;;;;;2.77;1.70;;;19.50;70.00;;;;;;938828;148;27289;-77
2023/04/22 06:55:20;;;;;;;2.72;2.47;;;19.60;70.00;;;;;;938154;148;27396;-77
2023/04/22 06:57:46;;;;;;;2.87;2.12;;;19.60;69.60;;;;;;939549;149;27448;-78
2023/04/22 07:00:13;;;;;;;2.25;1.82;;;19.80;69.20;;;;;;940035;149;27448;-77
2023/04/22 07:02:40;;;;;;;2.25;2.10;;;19.80;69.20;;;;;;939616;149;27295;-78
2023/04/22 07:05:06;;;;;;;2.10;1.80;;;20.00;69.20;;;;;;938042;149;27320;-78
2023/04/22 07:07:33;;;;;;;2.17;1.98;;;20.10;69.20;;;;;;932428;149;27468;-77
2023/04/22 07:09:59;;;;;;;2.22;2.05;;;20.30;69.00;;;;;;932968;149;27416;-78
2023/04/22 07:12:26;;;;;;;2.30;2.10;;;20.50;68.60;;;;;;941374;149;27410;-77
2023/04/22 07:14:53;;;;;;;2.75;2.00;;;20.60;67.90;;;;;;940911;149;27374;-78
2023/04/22 07:17:21;;;;;;;2.08;1.98;;;20.80;67.60;;;;;;941358;149;27473;-78
2023/04/22 07:19:46;;;;;;;2.33;2.10;;;20.90;67.20;;;;;;935669;149;27455;-78
2023/04/22 07:22:12;;;;;;;2.27;2.08;;;21.10;67.00;;;;;;924792;150;27404;-78
2023/04/22 07:24:39;;;;;;;2.10;2.00;;;21.30;66.90;;;;;;933118;149;27430;-78
2023/04/22 07:27:05;;;;;;;2.05;1.85;;;21.50;66.80;;;;;;931936;149;27315;-78
2023/04/22 07:29:32;;;;;;;2.15;2.00;;;21.70;66.70;;;;;;940360;147;27413;-78
2023/04/22 07:31:59;;;;;;;2.05;1.95;;;22.10;66.70;;;;;;937915;149;27462;-78
2023/04/22 07:34:25;;;;;;;2.35;2.02;;;22.40;66.50;;;;;;936491;149;27388;-77
2023/04/22 07:36:52;;;;;;;2.02;1.87;;;22.80;66.10;;;;;;935191;149;27319;-78
2023/04/22 07:39:18;;;;;;;3.45;1.80;;;23.20;65.50;;;;;;939752;150;27330;-78
2023/04/22 07:41:45;;;;;;;2.08;1.80;;;23.70;65.30;;;;;;922943;150;27297;-78
2023/04/22 07:44:15;;;;;;;2.70;2.22;;;24.10;64.50;;;;;;936350;148;27349;-78
2023/04/22 07:46:38;;;;;;;2.20;1.98;;;24.60;63.70;;;;;;938727;149;27316;-78
2023/04/22 07:49:05;;;;;;;2.25;2.15;;;25.10;62.90;;;;;;938269;149;27279;-78
2023/04/22 07:51:31;;;;;;;2.60;1.72;;;25.60;62.00;;;;;;920111;150;27446;-78
2023/04/22 07:53:58;;;;;;;2.02;1.92;;;26.10;61.40;;;;;;936306;148;27811;-78
2023/04/22 07:56:25;;;;;;;2.15;2.02;;;26.60;60.70;;;;;;915184;151;27342;-78
2023/04/22 07:58:51;;;;;;;4.60;2.60;;;27.20;60.30;;;;;;939542;149;27410;-79
2023/04/22 08:01:18;;;;;;;7.10;2.00;;;27.80;59.40;;;;;;926549;150;27318;-78
2023/04/22 08:03:44;;;;;;;1.82;1.67;;;28.40;58.50;;;;;;943100;148;27357;-79
2023/04/22 08:06:11;;;;;;;4.90;2.95;;;29.00;57.40;;;;;;940010;148;27421;-78
2023/04/22 08:08:38;;;;;;;2.00;1.85;;;29.50;56.80;;;;;;935506;149;27419;-79
2023/04/22 08:11:04;;;;;;;1.85;1.75;;;30.00;56.90;;;;;;930774;149;27410;-79
2023/04/22 08:13:31;;;;;;;1.92;1.82;;;30.60;55.80;;;;;;935112;149;27335;-79
2023/04/22 08:15:57;;;;;;;2.10;1.90;;;31.20;55.30;;;;;;939931;150;27390;-79
2023/04/22 08:18:24;;;;;;;1.67;1.57;;;31.90;54.60;;;;;;926518;150;26301;-79
2023/04/22 08:20:50;;;;;;;1.98;1.87;;;32.50;53.50;;;;;;940097;150;27405;-79
2023/04/22 08:23:17;;;;;;;4.92;1.65;;;33.10;52.50;;;;;;926871;149;27495;-79
2023/04/22 08:25:44;;;;;;;1.70;1.60;;;33.50;50.90;;;;;;941445;149;26366;-79
2023/04/22 08:28:10;;;;;;;1.67;1.57;;;33.80;49.60;;;;;;940119;149;26289;-79
2023/04/22 08:30:37;;;;;;;1.60;1.50;;;34.00;48.70;;;;;;943368;148;26238;-79
2023/04/22 08:33:03;;;;;;;1.45;1.35;;;34.10;47.90;;;;;;944518;148;27387;-79
2023/04/22 08:35:30;;;;;;;1.60;1.50;;;34.20;46.90;;;;;;945383;149;26285;-79
2023/04/22 08:37:57;;;;;;;1.55;1.45;;;34.20;46.80;;;;;;928841;150;26282;-79
2023/04/22 08:40:23;;;;;;;1.67;1.57;;;34.30;46.70;;;;;;940998;149;26350;-79
2023/04/22 08:42:51;;;;;;;2.65;1.80;;;34.40;46.40;;;;;;941357;149;26209;-79
2023/04/22 08:45:16;;;;;;;1.35;1.30;;;34.40;46.00;;;;;;941645;149;26306;-79
2023/04/22 08:47:43;;;;;;;1.57;1.45;;;34.40;45.50;;;;;;943673;148;26223;-79
2023/04/22 08:50:10;;;;;;;1.60;1.37;;;34.30;44.80;;;;;;926914;149;27371;-79
2023/04/22 08:52:36;;;;;;;1.60;1.50;;;34.20;44.30;;;;;;926885;150;26288;-75
2023/04/22 08:55:03;;;;;;;1.45;1.35;;;34.00;44.10;;;;;;930986;150;27347;-75
2023/04/22 08:57:29;;;;;;;1.42;1.32;;;33.80;43.80;;;;;;928185;152;26276;-75
2023/04/22 08:59:56;;;;;;;1.60;1.50;;;33.50;44.00;;;;;;925190;150;27462;-74
2023/04/22 09:02:22;;;;;;;2.55;1.55;;;33.20;43.70;;;;;;940666;149;27368;-75
2023/04/22 09:04:49;;;;;;;1.52;1.42;;;33.10;44.00;;;;;;941817;149;27397;-75
2023/04/22 09:07:22;;;;;;;3.77;1.47;;;33.00;44.00;;;;;;941313;149;27399;-75
2023/04/22 09:09:49;;;;;;;2.45;1.60;;;32.90;44.20;;;;;;941710;149;27426;-75
2023/04/22 09:12:17;;;;;;;1.62;1.30;;;33.00;44.70;;;;;;940837;149;27947;-75
2023/04/22 09:14:41;;;;;;;1.30;1.20;;;33.10;45.00;;;;;;941017;149;26238;-74
2023/04/22 09:17:08;;;;;;;1.60;1.50;;;33.40;44.80;;;;;;941397;149;26330;-74
2023/04/22 09:19:35;;;;;;;1.10;1.10;;;33.70;44.40;;;;;;940792;149;26253;-75
2023/04/22 09:22:01;;;;;;;1.35;1.25;;;34.00;44.00;;;;;;942480;149;26264;-75
2023/04/22 09:24:28;;;;;;;1.70;1.47;;;34.20;43.30;;;;;;943389;149;26371;-74
2023/04/22 09:26:55;;;;;;;1.07;1.07;;;34.30;42.50;;;;;;948507;148;26239;-75
2023/04/22 09:29:21;;;;;;;1.30;1.30;;;34.30;41.70;;;;;;939153;148;26226;-75
2023/04/22 09:31:48;;;;;;;1.05;1.05;;;34.20;41.30;;;;;;932282;149;26279;-75
2023/04/22 09:34:14;;;;;;;1.62;1.37;;;34.10;41.30;;;;;;932583;149;27355;-74
2023/04/22 09:36:41;;;;;;;1.92;1.40;;;33.90;41.10;;;;;;911021;153;26284;-74
2023/04/22 09:39:07;;;;;;;1.55;1.45;;;33.60;41.20;;;;;;908580;155;27465;-74
2023/04/22 09:41:39;;;;;;;1.75;1.55;;;33.30;41.10;;;;;;909387;155;27446;-75
2023/04/22 09:44:03;;;;;;;1.15;1.15;;;33.10;41.00;;;;;;931613;149;27382;-74
2023/04/22 09:46:30;;;;;;;1.45;1.35;;;32.80;41.20;;;;;;931856;149;27369;-74
2023/04/22 09:48:57;;;;;;;1.62;1.52;;;32.60;41.10;;;;;;932319;149;27251;-74
2023/04/22 09:51:23;;;;;;;1.65;1.20;;;32.30;41.20;;;;;;930475;149;27483;-74
2023/04/22 09:54:07;;;;;;;1.72;1.50;;;32.10;41.30;;;;;;932989;149;27369;-74
2023/04/22 09:56:49;;;;;;;1.30;1.17;;;31.80;41.50;;;;;;931843;149;27369;-74
2023/04/22 09:59:13;;;;;;;1.57;1.42;;;31.50;41.60;;;;;;910675;153;27459;-74
2023/04/22 10:01:39;;;;;;;1.35;1.25;;;31.30;42.10;;;;;;913923;154;27469;-74
2023/04/22 10:04:09;;;;;;;1.50;1.40;;;31.10;42.30;;;;;;910236;154;27427;-74
2023/04/22 10:06:35;;;;;;;1.45;1.35;;;31.00;42.20;;;;;;940976;149;27407;-74
2023/04/22 10:09:02;;;;;;;1.20;1.20;;;30.90;41.50;;;;;;910545;153;27471;-74
2023/04/22 10:11:28;;;;;;;1.57;1.47;;;30.80;42.50;;;;;;913549;154;27490;-74
2023/04/22 10:13:55;;;;;;;2.15;1.60;;;30.70;42.60;;;;;;914242;154;27361;-74
2023/04/22 10:16:22;;;;;;;1.42;1.10;;;30.60;42.70;;;;;;914354;154;27403;-74
2023/04/22 10:18:48;;;;;;;1.75;1.27;;;30.70;42.80;;;;;;912538;154;27465;-74
2023/04/22 10:21:15;;;;;;;3.05;1.47;;;30.70;42.70;;;;;;913197;154;27361;-74
2023/04/22 10:23:41;;;;;;;1.42;1.20;;;30.80;42.50;;;;;;919178;150;27520;-74
2023/04/22 10:26:08;;;;;;;1.35;1.32;;;30.70;42.00;;;;;;935345;148;27359;-74
2023/04/22 10:28:35;;;;;;;1.15;1.07;;;30.70;42.00;;;;;;927914;150;27364;-74
2023/04/22 10:31:01;;;;;;;1.42;1.20;;;30.60;42.10;;;;;;926064;150;27980;-74
2023/04/22 10:33:30;;;;;;;1.82;1.25;;;30.60;42.20;;;;;;926315;150;27399;-74
2023/04/22 10:36:18;;;;;;;3.42;1.40;;;30.50;42.40;;;;;;926648;150;27380;-74
2023/04/22 10:38:54;;;;;;;1.47;1.37;;;30.40;42.00;;;;;;926959;150;27370;-74
2023/04/22 10:41:24;;;;;;;1.15;1.07;;;30.30;41.90;;;;;;926959;150;27379;-74
2023/04/22 10:43:58;;;;;;;1.17;1.17;;;30.30;42.00;;;;;;926734;150;27433;-74
2023/04/22 10:46:38;;;;;;;1.37;1.27;;;30.20;41.70;;;;;;926494;150;27461;-74
2023/04/22 10:49:07;;;;;;;2.60;1.27;;;30.20;42.10;;;;;;925920;150;27334;-74
2023/04/22 10:51:42;;;;;;;1.60;1.50;;;30.00;42.10;;;;;;926613;150;27394;-75
2023/04/22 10:54:27;;;;;;;1.55;1.25;;;30.00;42.50;;;;;;926487;150;27303;-74
2023/04/22 10:57:13;;;;;;;0.90;0.90;;;30.00;42.60;;;;;;927244;150;27292;-74
2023/04/22 10:59:41;;;;;;;1.75;1.10;;;30.00;42.30;;;;;;926482;150;27813;-74
2023/04/22 11:02:08;;;;;;;1.12;1.02;;;30.00;42.10;;;;;;927183;150;27298;-74
2023/04/22 11:04:36;;;;;;;1.12;1.05;;;30.00;41.80;;;;;;927203;150;27256;-74
2023/04/22 11:07:25;;;;;;;1.12;1.10;;;30.00;41.90;;;;;;926655;150;27329;-74
2023/04/22 11:10:06;;;;;;;1.02;1.02;;;30.00;42.00;;;;;;926329;150;27400;-74
2023/04/22 11:12:38;;;;;;;1.17;1.15;;;30.00;42.10;;;;;;927044;150;27479;-75
2023/04/22 11:15:08;;;;;;;1.40;1.30;;;30.10;42.00;;;;;;926280;150;27441;-74
2023/04/22 11:17:34;;;;;;;2.12;1.50;;;30.10;41.50;;;;;;926688;150;27331;-74
2023/04/22 11:20:01;;;;;;;0.88;0.88;;;30.10;41.50;;;;;;926611;150;27340;-74
2023/04/22 11:22:27;;;;;;;2.62;1.20;;;30.00;41.50;;;;;;926458;150;27404;-74
2023/04/22 11:24:57;;;;;;;1.45;1.25;;;30.00;41.40;;;;;;936920;149;27484;-75
2023/04/22 11:27:26;;;;;;;1.10;1.10;;;29.90;41.50;;;;;;943609;149;27433;-75
2023/04/22 11:30:02;;;;;;;1.12;1.12;;;29.90;41.30;;;;;;943998;149;27346;-74
2023/04/22 11:32:28;;;;;;;1.52;1.10;;;29.90;41.00;;;;;;920955;151;27318;-75
2023/04/22 11:34:55;;;;;;;1.50;1.20;;;29.80;40.70;;;;;;943918;148;27322;-74
2023/04/22 11:37:22;;;;;;;1.20;1.10;;;29.80;40.80;;;;;;941152;149;27416;-75
2023/04/22 11:39:51;;;;;;;3.50;1.07;;;29.80;40.30;;;;;;940875;149;27393;-75
2023/04/22 11:42:15;;;;;;;1.40;0.95;;;29.80;40.30;;;;;;940625;149;27263;-74
2023/04/22 11:44:41;;;;;;;1.70;1.10;;;29.80;40.40;;;;;;943447;148;27420;-74
2023/04/22 11:47:08;;;;;;;1.12;1.07;;;29.80;40.50;;;;;;927885;150;27395;-74
2023/04/22 11:49:35;;;;;;;1.52;1.17;;;29.80;40.50;;;;;;927956;152;27340;-74
2023/04/22 11:52:01;;;;;;;1.10;1.00;;;29.70;39.90;;;;;;945680;149;27345;-74
2023/04/22 11:54:30;;;;;;;1.07;1.07;;;29.70;39.60;;;;;;943780;148;27319;-75
2023/04/22 11:56:57;;;;;;;2.25;1.40;;;29.60;39.70;;;;;;941314;149;27444;-74
2023/04/22 11:59:24;;;;;;;1.22;1.15;;;29.60;39.60;;;;;;944295;148;27262;-74
2023/04/22 12:01:50;;;;;;;1.52;1.10;;;29.50;39.10;;;;;;941565;149;27370;-75
2023/04/22 12:04:17;;;;;;;1.30;1.15;;;29.40;38.30;;;;;;941153;149;27420;-74
2023/04/22 12:06:43;;;;;;;1.65;0.90;;;29.40;38.30;;;;;;941628;149;27333;-74
2023/04/22 12:09:11;;;;;;;1.22;0.93;;;29.30;38.70;;;;;;941746;149;27478;-75
2023/04/22 12:11:36;;;;;;;1.30;1.20;;;29.20;38.60;;;;;;932661;150;27429;-74
2023/04/22 12:14:06;;;;;;;1.40;1.30;;;29.20;38.50;;;;;;941659;149;27384;-74
2023/04/22 12:16:41;;;;;;;1.37;1.05;;;29.10;38.50;;;;;;942132;149;27299;-74
2023/04/22 12:19:08;;;;;;;0.90;0.90;;;29.00;38.30;;;;;;941544;149;27451;-74
2023/04/22 12:21:35;;;;;;;2.60;1.52;;;28.90;38.60;;;;;;931752;150;27475;-74
2023/04/22 12:24:04;;;;;;;1.37;1.22;;;28.90;38.70;;;;;;944232;148;27323;-74
2023/04/22 12:26:30;;;;;;;1.12;0.98;;;28.80;38.50;;;;;;938571;150;27502;-74
2023/04/22 12:28:57;;;;;;;0.80;0.80;;;28.80;38.40;;;;;;957110;147;27428;-74
2023/04/22 12:31:23;;;;;;;0.93;0.93;;;28.70;38.50;;;;;;941041;149;27445;-74
2023/04/22 12:33:50;;;;;;;1.77;1.50;;;28.70;38.50;;;;;;942100;149;27307;-74
2023/04/22 12:36:17;;;;;;;1.22;1.10;;;28.60;38.50;;;;;;943915;148;27303;-74
2023/04/22 12:38:43;;;;;;;1.15;1.10;;;28.60;38.70;;;;;;926878;150;27347;-74
2023/04/22 12:41:10;;;;;;;1.25;1.07;;;28.60;38.70;;;;;;932219;150;27363;-74
2023/04/22 12:43:38;;;;;;;2.12;1.20;;;28.50;38.60;;;;;;943029;148;27336;-74
2023/04/22 12:46:03;;;;;;;1.50;1.25;;;28.50;38.40;;;;;;928903;150;27454;-74
2023/04/22 12:48:30;;;;;;;1.27;1.17;;;28.50;38.50;;;;;;943434;149;27323;-73